createdAt,value
2018-08-18T00:01:11.343Z,23.00
2018-08-18T00:03:38.469Z,23.00
2018-08-18T00:06:05.561Z,23.00
2018-08-18T00:08:32.673Z,23.00
2018-08-18T00:11:01.365Z,23.00
2018-08-18T00:13:28.505Z,23.00
2018-08-18T00:15:55.601Z,23.00
2018-08-18T00:18:22.721Z,23.00
2018-08-18T00:20:49.840Z,23.00
2018-08-18T00:23:16.949Z,23.00
2018-08-18T00:25:44.060Z,23.00
2018-08-18T00:28:22.959Z,22.90
2018-08-18T00:30:50.089Z,23.00
2018-08-18T00:33:17.177Z,22.90
2018-08-18T00:35:44.283Z,23.00
2018-08-18T00:38:11.409Z,23.00
2018-08-18T00:40:38.514Z,22.90
2018-08-18T00:43:05.834Z,23.00
2018-08-18T00:45:33.275Z,22.90
2018-08-18T00:48:00.377Z,22.90
2018-08-18T00:50:35.889Z,22.90
2018-08-18T00:53:03.513Z,22.90
2018-08-18T00:55:30.605Z,22.90
2018-08-18T00:57:57.701Z,22.80
2018-08-18T01:00:24.793Z,22.90
2018-08-18T01:02:51.900Z,22.80
2018-08-18T01:05:19.525Z,22.80
2018-08-18T01:07:46.656Z,22.80
2018-08-18T01:10:13.913Z,22.80
2018-08-18T01:12:41.091Z,22.80
2018-08-18T01:15:08.210Z,22.80
2018-08-18T01:17:40.867Z,22.80
2018-08-18T01:20:07.978Z,22.80
2018-08-18T01:22:35.107Z,22.70
2018-08-18T01:25:02.510Z,22.70
2018-08-18T01:34:33.494Z,22.70
2018-08-18T01:37:07.025Z,22.70
2018-08-18T01:39:34.138Z,22.70
2018-08-18T01:42:01.239Z,22.70
2018-08-18T01:44:28.345Z,22.70
2018-08-18T01:46:55.444Z,22.70
2018-08-18T01:49:24.913Z,22.70
2018-08-18T01:51:52.040Z,22.70
2018-08-18T01:54:19.173Z,22.70
2018-08-18T01:56:47.629Z,22.70
2018-08-18T01:59:14.909Z,22.60
2018-08-18T02:01:41.998Z,22.70
2018-08-18T02:04:09.105Z,22.70
2018-08-18T02:06:36.200Z,22.70
2018-08-18T02:09:03.339Z,22.70
2018-08-18T02:11:30.465Z,22.60
2018-08-18T02:13:57.601Z,22.60
2018-08-18T02:16:26.205Z,22.60
2018-08-18T02:18:53.574Z,22.60
2018-08-18T02:21:32.090Z,22.60
2018-08-18T02:24:02.395Z,22.60
2018-08-18T02:26:29.861Z,22.60
2018-08-18T02:28:56.957Z,22.60
2018-08-18T02:31:24.255Z,22.60
2018-08-18T02:33:51.514Z,22.50
2018-08-18T02:36:18.631Z,22.50
2018-08-18T02:38:51.229Z,22.50
2018-08-18T02:41:18.351Z,22.50
2018-08-18T02:43:45.456Z,22.50
2018-08-18T02:46:21.363Z,22.50
2018-08-18T02:48:48.758Z,22.50
2018-08-18T02:51:21.052Z,22.50
2018-08-18T02:53:48.358Z,22.50
2018-08-18T02:56:15.454Z,22.50
2018-08-18T02:58:47.157Z,22.40
2018-08-18T03:01:14.702Z,22.40
2018-08-18T03:03:42.121Z,22.40
2018-08-18T03:06:11.964Z,22.30
2018-08-18T03:08:39.497Z,22.30
2018-08-18T03:11:06.633Z,22.30
2018-08-18T03:13:33.752Z,22.30
2018-08-18T03:16:02.235Z,22.30
2018-08-18T03:18:39.929Z,22.20
2018-08-18T03:21:07.022Z,22.20
2018-08-18T03:23:34.649Z,22.20
2018-08-18T03:26:02.157Z,22.10
2018-08-18T03:28:35.960Z,22.10
2018-08-18T03:31:03.949Z,22.10
2018-08-18T03:33:31.252Z,22.20
2018-08-18T03:35:58.417Z,22.10
2018-08-18T03:38:25.542Z,22.10
2018-08-18T03:40:52.645Z,22.10
2018-08-18T03:43:19.731Z,22.10
2018-08-18T03:45:47.169Z,22.10
2018-08-18T03:48:14.289Z,22.00
2018-08-18T03:50:46.713Z,22.00
2018-08-18T03:53:17.182Z,22.10
2018-08-18T03:55:44.277Z,22.20
2018-08-18T03:58:11.415Z,22.20
2018-08-18T04:00:39.086Z,22.10
2018-08-18T04:03:08.303Z,22.10
2018-08-18T04:05:35.407Z,22.10
2018-08-18T04:08:02.509Z,22.00
2018-08-18T04:10:29.637Z,22.00
2018-08-18T04:12:57.597Z,22.00
2018-08-18T04:15:24.821Z,22.00
2018-08-18T04:17:51.926Z,22.00
2018-08-18T04:20:19.026Z,21.90
2018-08-18T04:22:46.132Z,21.90
2018-08-18T04:25:13.271Z,21.90
2018-08-18T04:27:42.005Z,21.80
2018-08-18T04:30:11.222Z,21.80
2018-08-18T04:32:50.013Z,21.80
2018-08-18T04:35:18.493Z,21.70
2018-08-18T04:37:45.590Z,21.70
2018-08-18T04:40:12.713Z,21.70
2018-08-18T04:42:40.493Z,21.70
2018-08-18T04:45:07.597Z,21.70
2018-08-18T04:47:34.725Z,21.70
2018-08-18T04:50:01.827Z,21.70
2018-08-18T04:52:28.944Z,21.70
2018-08-18T04:54:56.070Z,21.70
2018-08-18T04:57:23.181Z,21.70
2018-08-18T04:59:50.298Z,21.60
2018-08-18T05:02:17.431Z,21.60
2018-08-18T05:04:44.548Z,21.60
2018-08-18T05:07:11.625Z,21.60
2018-08-18T05:09:38.713Z,21.60
2018-08-18T05:12:07.813Z,21.60
2018-08-18T05:14:34.901Z,21.60
2018-08-18T05:17:01.994Z,21.60
2018-08-18T05:19:29.083Z,21.60
2018-08-18T05:21:56.172Z,21.60
2018-08-18T05:24:24.797Z,21.60
2018-08-18T05:26:52.945Z,21.60
2018-08-18T05:29:20.105Z,21.60
2018-08-18T05:31:47.285Z,21.60
2018-08-18T05:34:14.365Z,21.60
2018-08-18T05:39:14.665Z,21.80
2018-08-18T05:41:41.741Z,22.10
2018-08-18T05:44:08.877Z,22.40
2018-08-18T05:46:35.961Z,22.60
2018-08-18T05:49:07.705Z,22.90
2018-08-18T05:51:39.697Z,23.10
2018-08-18T05:54:06.817Z,23.20
2018-08-18T05:56:33.937Z,23.30
2018-08-18T05:59:01.013Z,23.30
2018-08-18T06:01:31.433Z,23.30
2018-08-18T06:04:04.257Z,23.30
2018-08-18T06:06:31.553Z,23.40
2018-08-18T06:08:58.655Z,23.50
2018-08-18T06:11:25.729Z,23.60
2018-08-18T06:13:52.815Z,23.70
2018-08-18T06:16:19.894Z,23.70
2018-08-18T06:18:46.998Z,23.60
2018-08-18T06:21:14.281Z,23.50
2018-08-18T06:23:41.370Z,23.30
2018-08-18T06:26:08.637Z,23.10
2018-08-18T06:28:35.724Z,23.00
2018-08-18T06:31:03.142Z,22.90
2018-08-18T06:33:30.417Z,22.80
2018-08-18T06:35:57.558Z,22.70
2018-08-18T06:38:24.611Z,22.50
2018-08-18T06:40:56.921Z,22.50
2018-08-18T06:43:24.165Z,22.40
2018-08-18T06:45:51.245Z,22.30
2018-08-18T06:48:20.689Z,22.30
2018-08-18T06:50:47.774Z,22.30
2018-08-18T06:53:14.881Z,22.30
2018-08-18T06:55:41.997Z,22.20
2018-08-18T06:58:09.146Z,22.20
2018-08-18T07:00:36.226Z,22.20
2018-08-18T07:03:14.210Z,22.20
2018-08-18T07:05:41.666Z,22.30
2018-08-18T07:08:08.764Z,22.20
2018-08-18T07:10:36.769Z,22.30
2018-08-18T07:13:05.361Z,22.30
2018-08-18T07:15:33.525Z,22.40
2018-08-18T07:18:00.639Z,22.40
2018-08-18T07:20:27.749Z,22.40
2018-08-18T07:22:55.015Z,22.50
2018-08-18T07:25:22.254Z,22.50
2018-08-18T07:27:58.244Z,22.50
2018-08-18T07:30:25.874Z,22.60
2018-08-18T07:32:53.039Z,22.70
2018-08-18T07:35:20.206Z,22.80
2018-08-18T07:37:49.045Z,22.90
2018-08-18T07:40:16.147Z,23.00
2018-08-18T07:42:48.381Z,23.20
2018-08-18T07:45:15.911Z,23.30
2018-08-18T07:47:43.139Z,23.50
2018-08-18T07:50:10.263Z,23.60
2018-08-18T07:52:37.381Z,23.70
2018-08-18T07:55:04.497Z,23.70
2018-08-18T07:57:31.654Z,23.70
2018-08-18T08:00:01.638Z,23.70
2018-08-18T08:02:29.345Z,23.60
2018-08-18T08:04:57.366Z,23.60
2018-08-18T08:07:24.677Z,23.50
2018-08-18T08:09:51.776Z,23.30
2018-08-18T08:12:18.910Z,23.20
2018-08-18T08:14:45.989Z,23.10
2018-08-18T08:17:13.081Z,23.10
2018-08-18T08:19:40.381Z,23.00
2018-08-18T08:22:07.877Z,23.00
2018-08-18T08:24:34.946Z,22.90
2018-08-18T08:27:02.026Z,22.80
2018-08-18T08:29:36.026Z,22.80
2018-08-18T08:32:03.674Z,22.80
2018-08-18T08:34:35.398Z,22.80
2018-08-18T08:37:02.493Z,22.80
2018-08-18T08:39:29.581Z,22.80
2018-08-18T08:41:56.690Z,22.80
2018-08-18T08:44:25.857Z,22.90
2018-08-18T08:47:06.569Z,22.90
2018-08-18T08:49:33.662Z,23.00
2018-08-18T08:52:00.793Z,23.00
2018-08-18T08:54:31.829Z,23.00
2018-08-18T08:57:04.921Z,23.00
2018-08-18T08:59:32.690Z,23.00
2018-08-18T09:01:59.958Z,23.00
2018-08-18T09:04:27.108Z,23.00
2018-08-18T09:06:54.674Z,23.00
2018-08-18T09:09:22.134Z,23.10
2018-08-18T09:11:49.397Z,23.10
2018-08-18T09:14:16.490Z,23.10
2018-08-18T09:16:43.583Z,23.10
2018-08-18T09:19:10.673Z,23.10
2018-08-18T09:21:43.201Z,23.20
2018-08-18T09:24:10.689Z,23.20
2018-08-18T09:26:43.526Z,23.30
2018-08-18T09:29:11.478Z,23.40
2018-08-18T09:31:38.725Z,23.50
2018-08-18T09:34:05.833Z,23.50
2018-08-18T09:36:32.969Z,23.50
2018-08-18T09:39:00.094Z,23.60
2018-08-18T09:41:27.271Z,23.60
2018-08-18T09:43:54.425Z,23.70
2018-08-18T09:46:21.644Z,23.70
2018-08-18T09:48:48.792Z,23.70
2018-08-18T09:51:15.933Z,23.70
2018-08-18T09:53:43.155Z,23.80
2018-08-18T09:56:10.313Z,23.80
2018-08-18T09:58:37.459Z,23.90
2018-08-18T10:01:04.608Z,23.90
2018-08-18T10:03:35.772Z,23.90
2018-08-18T10:06:02.961Z,23.90
2018-08-18T10:08:30.090Z,23.90
2018-08-18T10:10:57.169Z,23.90
2018-08-18T10:13:24.256Z,24.00
2018-08-18T10:15:51.357Z,24.10
2018-08-18T10:18:18.453Z,24.20
2018-08-18T10:20:50.189Z,24.20
2018-08-18T10:23:17.321Z,24.30
2018-08-18T10:25:44.829Z,24.30
2018-08-18T10:28:11.930Z,24.30
2018-08-18T10:30:39.002Z,24.30
2018-08-18T10:33:06.077Z,24.30
2018-08-18T10:35:33.179Z,24.30
2018-08-18T10:38:02.577Z,24.20
2018-08-18T10:40:29.849Z,24.20
2018-08-18T10:42:56.962Z,24.20
2018-08-18T10:45:24.055Z,24.20
2018-08-18T10:47:51.141Z,24.20
2018-08-18T10:51:46.649Z,24.20
2018-08-18T10:54:13.505Z,24.30
2018-08-18T10:56:40.583Z,24.30
2018-08-18T10:59:15.791Z,24.30
2018-08-18T11:02:50.009Z,24.30
2018-08-18T11:05:17.649Z,24.30
2018-08-18T11:07:52.381Z,24.30
2018-08-18T11:10:20.185Z,24.20
2018-08-18T11:12:47.273Z,24.20
2018-08-18T11:15:14.363Z,24.20
2018-08-18T11:17:41.461Z,24.30
2018-08-18T11:20:15.265Z,24.20
2018-08-18T11:22:58.330Z,24.20
2018-08-18T11:25:29.573Z,24.20
2018-08-18T11:27:57.349Z,24.20
2018-08-18T11:30:24.717Z,24.30
2018-08-18T11:32:52.881Z,24.30
2018-08-18T11:35:19.973Z,24.30
2018-08-18T11:37:55.688Z,24.30
2018-08-18T11:40:23.781Z,24.20
2018-08-18T11:42:51.573Z,24.20
2018-08-18T11:45:19.737Z,24.20
2018-08-18T11:47:54.578Z,24.20
2018-08-18T11:50:22.109Z,24.20
2018-08-18T11:52:49.877Z,24.20
2018-08-18T11:55:17.446Z,24.10
2018-08-18T11:57:44.532Z,24.10
2018-08-18T12:02:44.365Z,24.00
2018-08-18T12:05:11.453Z,24.00
2018-08-18T12:07:38.541Z,24.00
2018-08-18T12:10:05.686Z,24.00
2018-08-18T12:12:32.807Z,24.00
2018-08-18T12:14:59.893Z,24.10
2018-08-18T12:17:27.009Z,24.00
2018-08-18T12:19:58.962Z,24.10
2018-08-18T12:22:26.057Z,24.10
2018-08-18T12:25:00.723Z,24.10
2018-08-18T12:27:28.601Z,24.10
2018-08-18T12:29:56.092Z,24.10
2018-08-18T12:32:27.086Z,24.10
2018-08-18T12:34:55.578Z,24.10
2018-08-18T12:37:26.142Z,24.00
2018-08-18T12:39:53.695Z,24.00
2018-08-18T12:42:28.352Z,24.00
2018-08-18T12:44:56.201Z,24.00
2018-08-18T12:47:23.436Z,24.00
2018-08-18T12:49:51.307Z,24.00
2018-08-18T12:52:18.418Z,24.00
2018-08-18T12:54:45.501Z,24.00
2018-08-18T12:57:12.919Z,23.90
2018-08-18T12:59:40.001Z,23.90
2018-08-18T13:02:07.418Z,23.90
2018-08-18T13:04:34.497Z,23.90
2018-08-18T13:07:01.613Z,23.90
2018-08-18T13:09:28.714Z,24.00
2018-08-18T13:11:57.170Z,23.90
2018-08-18T13:14:25.843Z,24.00
2018-08-18T13:16:53.093Z,24.00
2018-08-18T13:19:22.254Z,24.00
2018-08-18T13:21:49.353Z,24.00
2018-08-18T13:24:16.593Z,24.00
2018-08-18T13:26:43.605Z,24.00
2018-08-18T13:29:10.733Z,24.00
2018-08-18T13:31:39.909Z,24.00
2018-08-18T13:34:08.081Z,24.00
2018-08-18T13:36:36.786Z,24.00
2018-08-18T13:39:06.621Z,24.00
2018-08-18T13:41:33.697Z,24.00
2018-08-18T13:44:00.803Z,24.00
2018-08-18T13:46:39.561Z,23.90
2018-08-18T13:49:06.910Z,23.90
2018-08-18T13:51:33.997Z,24.00
2018-08-18T13:54:02.245Z,24.00
2018-08-18T13:56:29.349Z,24.00
2018-08-18T13:58:56.633Z,24.10
2018-08-18T14:01:32.766Z,24.10
2018-08-18T14:03:59.902Z,24.10
2018-08-18T14:06:27.013Z,24.10
2018-08-18T14:08:59.932Z,24.10
2018-08-18T14:11:27.581Z,24.10
2018-08-18T14:13:54.685Z,24.10
2018-08-18T14:16:21.762Z,24.10
2018-08-18T14:18:48.841Z,24.10
2018-08-18T14:21:19.993Z,24.10
2018-08-18T14:23:47.112Z,24.10
2018-08-18T14:26:14.219Z,24.10
2018-08-18T14:28:41.326Z,24.10
2018-08-18T14:31:08.433Z,24.10
2018-08-18T14:33:35.874Z,24.20
2018-08-18T14:36:08.768Z,24.10
2018-08-18T14:38:35.885Z,24.10
2018-08-18T14:41:03.105Z,24.10
2018-08-18T14:43:36.745Z,24.10
2018-08-18T14:46:05.065Z,24.20
2018-08-18T14:48:32.179Z,24.20
2018-08-18T14:50:59.273Z,24.20
2018-08-18T14:53:26.389Z,24.20
2018-08-18T14:55:53.952Z,24.30
2018-08-18T14:58:27.284Z,24.30
2018-08-18T15:01:01.009Z,24.40
2018-08-18T15:03:28.138Z,24.40
2018-08-18T15:05:55.226Z,24.50
2018-08-18T15:08:22.331Z,24.50
2018-08-18T15:10:49.446Z,24.60
2018-08-18T15:13:16.539Z,24.60
2018-08-18T15:15:43.666Z,24.70
2018-08-18T15:18:12.375Z,24.80
2018-08-18T15:20:40.133Z,24.80
2018-08-18T15:23:08.122Z,24.80
2018-08-18T15:25:36.106Z,24.80
2018-08-18T15:28:04.379Z,24.80
2018-08-18T15:30:32.041Z,24.80
2018-08-18T15:32:59.293Z,24.70
2018-08-18T15:35:26.645Z,24.70
2018-08-18T15:37:53.966Z,24.70
2018-08-18T15:40:21.280Z,24.70
2018-08-18T15:42:48.401Z,24.70
2018-08-18T15:45:15.502Z,24.70
2018-08-18T15:47:42.587Z,24.70
2018-08-18T15:50:09.677Z,24.70
2018-08-18T15:52:36.793Z,24.70
2018-08-18T15:55:04.611Z,24.60
2018-08-18T15:57:32.289Z,24.60
2018-08-18T15:59:59.406Z,24.70
2018-08-18T16:02:26.889Z,24.70
2018-08-18T16:04:54.169Z,24.70
2018-08-18T16:07:21.321Z,24.70
2018-08-18T16:09:48.460Z,24.70
2018-08-18T16:12:15.642Z,24.70
2018-08-18T16:14:42.785Z,24.70
2018-08-18T16:17:09.943Z,24.70
2018-08-18T16:19:37.091Z,24.70
2018-08-18T16:22:05.440Z,24.70
2018-08-18T16:24:39.715Z,24.80
2018-08-18T16:27:07.275Z,24.80
2018-08-18T16:29:40.359Z,24.80
2018-08-18T16:32:20.405Z,24.80
2018-08-18T16:34:50.905Z,24.80
2018-08-18T16:37:18.032Z,24.80
2018-08-18T16:39:45.150Z,24.70
2018-08-18T16:42:13.324Z,24.70
2018-08-18T16:44:41.090Z,24.70
2018-08-18T16:47:08.250Z,24.70
2018-08-18T16:49:35.385Z,24.70
2018-08-18T16:52:02.513Z,24.60
2018-08-18T16:54:30.242Z,24.60
2018-08-18T16:56:57.389Z,24.60
2018-08-18T16:59:24.512Z,24.60
2018-08-18T17:01:51.617Z,24.60
2018-08-18T17:04:23.305Z,24.50
2018-08-18T17:06:50.409Z,24.50
2018-08-18T17:09:29.081Z,24.50
2018-08-18T17:12:10.978Z,24.50
2018-08-18T17:14:38.210Z,24.50
2018-08-18T17:17:05.297Z,24.50
2018-08-18T17:19:32.390Z,24.40
2018-08-18T17:21:59.497Z,24.40
2018-08-18T17:24:26.584Z,24.40
2018-08-18T17:26:53.669Z,24.40
2018-08-18T17:29:20.767Z,24.40
2018-08-18T17:31:47.849Z,24.40
2018-08-18T17:34:14.943Z,24.40
2018-08-18T17:36:42.026Z,24.40
2018-08-18T17:39:09.152Z,24.30
2018-08-18T17:41:36.243Z,24.30
2018-08-18T17:44:03.339Z,24.30
2018-08-18T17:46:30.813Z,24.30
2018-08-18T17:48:57.925Z,24.30
2018-08-18T17:51:25.021Z,24.30
2018-08-18T17:53:53.693Z,24.30
2018-08-18T17:56:20.782Z,24.30
2018-08-18T17:58:47.926Z,24.30
2018-08-18T18:01:14.983Z,24.30
2018-08-18T18:03:42.098Z,24.30
2018-08-18T18:06:09.249Z,24.30
2018-08-18T18:08:36.354Z,24.30
2018-08-18T18:11:07.485Z,24.30
2018-08-18T18:13:34.583Z,24.30
2018-08-18T18:16:02.424Z,24.20
2018-08-18T18:18:46.578Z,24.20
2018-08-18T18:21:13.707Z,24.20
2018-08-18T18:23:41.845Z,24.20
2018-08-18T18:26:08.946Z,24.20
2018-08-18T18:28:36.042Z,24.20
2018-08-18T18:31:03.177Z,24.20
2018-08-18T18:33:30.277Z,24.20
2018-08-18T18:35:57.528Z,24.20
2018-08-18T18:38:24.637Z,24.20
2018-08-18T18:40:51.734Z,24.20
2018-08-18T18:43:18.843Z,24.20
2018-08-18T18:45:46.004Z,24.10
2018-08-18T18:48:14.217Z,24.20
2018-08-18T18:50:43.661Z,24.10
2018-08-18T18:53:10.766Z,24.10
2018-08-18T18:55:52.617Z,24.10
2018-08-18T18:58:19.747Z,24.10
2018-08-18T19:00:50.219Z,24.10
2018-08-18T19:03:17.316Z,24.10
2018-08-18T19:05:46.061Z,24.10
2018-08-18T19:08:14.705Z,24.00
2018-08-18T19:10:41.809Z,24.00
2018-08-18T19:13:09.222Z,24.00
2018-08-18T19:15:36.316Z,24.00
2018-08-18T19:18:03.818Z,24.00
2018-08-18T19:20:31.098Z,23.90
2018-08-18T19:23:07.954Z,23.90
2018-08-18T19:25:36.153Z,24.00
2018-08-18T19:28:03.266Z,24.00
2018-08-18T19:30:31.065Z,24.00
2018-08-18T19:32:58.191Z,23.90
2018-08-18T19:35:28.386Z,24.00
2018-08-18T19:37:55.489Z,23.90
2018-08-18T19:40:22.758Z,23.90
2018-08-18T19:42:49.857Z,23.90
2018-08-18T19:45:16.982Z,23.90
2018-08-18T19:47:45.438Z,23.90
2018-08-18T19:50:12.608Z,23.90
2018-08-18T19:52:41.313Z,23.90
2018-08-18T19:55:09.829Z,23.90
2018-08-18T19:57:37.761Z,23.90
2018-08-18T20:00:16.566Z,23.90
2018-08-18T20:02:53.675Z,23.90
2018-08-18T20:05:21.749Z,23.90
2018-08-18T20:07:49.103Z,23.90
2018-08-18T20:10:20.298Z,23.90
2018-08-18T20:12:47.397Z,23.90
2018-08-18T20:15:15.181Z,23.90
2018-08-18T20:17:42.734Z,23.80
2018-08-18T20:20:12.130Z,23.90
2018-08-18T20:22:39.405Z,23.90
2018-08-18T20:25:06.513Z,23.90
2018-08-18T20:27:33.721Z,23.90
2018-08-18T20:30:00.805Z,23.90
2018-08-18T20:32:27.895Z,23.90
2018-08-18T20:34:59.046Z,23.90
2018-08-18T20:37:26.141Z,23.90
2018-08-18T20:39:53.414Z,23.90
2018-08-18T20:42:25.389Z,23.90
2018-08-18T20:44:53.053Z,23.90
2018-08-18T20:47:20.177Z,23.90
2018-08-18T20:49:47.276Z,23.90
2018-08-18T20:52:14.353Z,23.90
2018-08-18T20:54:41.446Z,23.90
2018-08-18T20:57:08.543Z,23.90
2018-08-18T20:59:35.645Z,23.90
2018-08-18T21:02:02.737Z,23.90
2018-08-18T21:04:29.853Z,23.90
2018-08-18T21:06:56.960Z,23.90
2018-08-18T21:09:26.866Z,23.90
2018-08-18T21:11:53.978Z,23.90
2018-08-18T21:14:21.161Z,23.90
2018-08-18T21:16:48.258Z,23.90
2018-08-18T21:19:19.901Z,23.90
2018-08-18T21:21:47.018Z,23.90
2018-08-18T21:24:14.117Z,23.90
2018-08-18T21:26:41.223Z,23.90
2018-08-18T21:29:08.341Z,23.90
2018-08-18T21:31:36.777Z,23.80
2018-08-18T21:34:05.125Z,23.80
2018-08-18T21:36:32.485Z,23.80
2018-08-18T21:39:01.226Z,23.90
2018-08-18T21:41:28.658Z,23.80
2018-08-18T21:43:55.775Z,23.80
2018-08-18T21:46:22.869Z,23.80
2018-08-18T21:48:51.553Z,23.80
2018-08-18T21:51:21.578Z,23.80
2018-08-18T21:53:48.674Z,23.80
2018-08-18T21:56:15.777Z,23.80
2018-08-18T21:58:42.915Z,23.80
2018-08-18T22:01:17.670Z,23.80
2018-08-18T22:03:45.638Z,23.80
2018-08-18T22:06:13.001Z,23.80
2018-08-18T22:08:40.105Z,23.80
2018-08-18T22:11:07.911Z,23.80
2018-08-18T22:13:40.077Z,23.80
2018-08-18T22:16:07.590Z,23.80
2018-08-18T22:18:34.694Z,23.80
2018-08-18T22:21:02.126Z,23.80
2018-08-18T22:23:29.227Z,23.80
2018-08-18T22:25:56.627Z,23.80
2018-08-18T22:28:23.733Z,23.80
2018-08-18T22:30:53.078Z,23.70
2018-08-18T22:33:20.993Z,23.70
2018-08-18T22:35:53.583Z,23.70
2018-08-18T22:38:20.701Z,23.70
2018-08-18T22:40:47.808Z,23.70
2018-08-18T22:43:15.457Z,23.70
2018-08-18T22:45:42.553Z,23.70
2018-08-18T22:48:09.652Z,23.70
2018-08-18T22:50:36.741Z,23.70
2018-08-18T22:53:03.846Z,23.70
2018-08-18T22:55:30.944Z,23.70
2018-08-18T22:58:01.468Z,23.70
2018-08-18T23:00:29.017Z,23.70
2018-08-18T23:02:56.136Z,23.70
2018-08-18T23:05:23.247Z,23.70
2018-08-18T23:07:53.386Z,23.70
2018-08-18T23:10:21.270Z,23.70
2018-08-18T23:12:48.381Z,23.70
2018-08-18T23:15:15.487Z,23.60
2018-08-18T23:17:42.581Z,23.70
2018-08-18T23:20:09.677Z,23.70
2018-08-18T23:22:55.992Z,23.60
2018-08-18T23:25:24.737Z,23.60
2018-08-18T23:27:52.112Z,23.60
2018-08-18T23:30:23.011Z,23.60
2018-08-18T23:32:50.239Z,23.60
2018-08-18T23:35:17.645Z,23.60
2018-08-18T23:37:44.752Z,23.60
2018-08-18T23:40:11.850Z,23.60
2018-08-18T23:42:38.957Z,23.60
2018-08-18T23:45:06.078Z,23.60
2018-08-18T23:47:33.192Z,23.60
2018-08-18T23:50:04.631Z,23.50
2018-08-18T23:52:42.545Z,23.50
2018-08-18T23:55:09.663Z,23.50
2018-08-18T23:57:36.771Z,23.50
